sensor_id;sensor_type;location;lat;lon;timestamp;temperature;humidity
60313;DHT22;46158;52.850;6.970;2022-08-27T00:00:39;21.90;72.00
60313;DHT22;46158;52.850;6.970;2022-08-27T00:03:05;21.90;72.00
60313;DHT22;46158;52.850;6.970;2022-08-27T00:05:30;21.90;72.00
60313;DHT22;46158;52.850;6.970;2022-08-27T00:07:56;21.90;71.90
60313;DHT22;46158;52.850;6.970;2022-08-27T00:10:25;21.90;71.90
60313;DHT22;46158;52.850;6.970;2022-08-27T00:12:52;21.90;71.90
60313;DHT22;46158;52.850;6.970;2022-08-27T00:15:18;21.80;71.90
60313;DHT22;46158;52.850;6.970;2022-08-27T00:17:45;21.90;71.90
60313;DHT22;46158;52.850;6.970;2022-08-27T00:20:13;21.80;71.90
60313;DHT22;46158;52.850;6.970;2022-08-27T00:22:39;21.90;72.00
60313;DHT22;46158;52.850;6.970;2022-08-27T00:25:06;21.80;71.90
60313;DHT22;46158;52.850;6.970;2022-08-27T00:27:31;21.80;71.90
60313;DHT22;46158;52.850;6.970;2022-08-27T00:29:57;21.80;71.90
60313;DHT22;46158;52.850;6.970;2022-08-27T00:32:23;21.80;71.90
60313;DHT22;46158;52.850;6.970;2022-08-27T00:34:48;21.80;71.90
60313;DHT22;46158;52.850;6.970;2022-08-27T00:37:14;21.80;72.00
60313;DHT22;46158;52.850;6.970;2022-08-27T00:39:40;21.80;71.90
60313;DHT22;46158;52.850;6.970;2022-08-27T00:42:06;21.80;71.90
60313;DHT22;46158;52.850;6.970;2022-08-27T00:44:32;21.80;71.90
60313;DHT22;46158;52.850;6.970;2022-08-27T00:47:01;21.80;72.00
60313;DHT22;46158;52.850;6.970;2022-08-27T00:49:47;21.80;71.90
60313;DHT22;46158;52.850;6.970;2022-08-27T00:52:22;21.80;71.80
60313;DHT22;46158;52.850;6.970;2022-08-27T00:54:51;21.80;71.90
60313;DHT22;46158;52.850;6.970;2022-08-27T00:57:18;21.80;71.90
60313;DHT22;46158;52.850;6.970;2022-08-27T00:59:44;21.80;71.90
60313;DHT22;46158;52.850;6.970;2022-08-27T01:02:10;21.70;71.90
60313;DHT22;46158;52.850;6.970;2022-08-27T01:05:04;21.70;71.90
60313;DHT22;46158;52.850;6.970;2022-08-27T01:07:33;21.80;71.90
60313;DHT22;46158;52.850;6.970;2022-08-27T01:10:02;21.70;71.90
60313;DHT22;46158;52.850;6.970;2022-08-27T01:12:30;21.70;71.90
60313;DHT22;46158;52.850;6.970;2022-08-27T01:14:57;21.70;71.90
60313;DHT22;46158;52.850;6.970;2022-08-27T01:17:24;21.70;71.90
60313;DHT22;46158;52.850;6.970;2022-08-27T01:19:56;21.70;71.90
60313;DHT22;46158;52.850;6.970;2022-08-27T01:22:47;21.70;71.80
60313;DHT22;46158;52.850;6.970;2022-08-27T01:25:17;21.70;71.80
60313;DHT22;46158;52.850;6.970;2022-08-27T01:27:44;21.70;71.80
60313;DHT22;46158;52.850;6.970;2022-08-27T01:30:15;21.70;71.80
60313;DHT22;46158;52.850;6.970;2022-08-27T01:32:42;21.70;71.80
60313;DHT22;46158;52.850;6.970;2022-08-27T01:35:09;21.70;71.80
60313;DHT22;46158;52.850;6.970;2022-08-27T01:37:35;21.70;71.90
60313;DHT22;46158;52.850;6.970;2022-08-27T01:40:03;21.70;71.80
60313;DHT22;46158;52.850;6.970;2022-08-27T01:42:51;21.70;71.80
60313;DHT22;46158;52.850;6.970;2022-08-27T01:45:24;21.70;71.70
60313;DHT22;46158;52.850;6.970;2022-08-27T01:47:50;21.70;71.80
60313;DHT22;46158;52.850;6.970;2022-08-27T01:50:24;21.60;71.70
60313;DHT22;46158;52.850;6.970;2022-08-27T01:52:51;21.70;71.70
60313;DHT22;46158;52.850;6.970;2022-08-27T01:55:22;21.60;71.70
60313;DHT22;46158;52.850;6.970;2022-08-27T01:57:50;21.70;71.70
60313;DHT22;46158;52.850;6.970;2022-08-27T02:00:30;21.60;71.70
60313;DHT22;46158;52.850;6.970;2022-08-27T02:02:57;21.60;71.70
60313;DHT22;46158;52.850;6.970;2022-08-27T02:05:24;21.60;71.70
60313;DHT22;46158;52.850;6.970;2022-08-27T02:07:50;21.60;71.70
60313;DHT22;46158;52.850;6.970;2022-08-27T02:10:20;21.60;71.70
60313;DHT22;46158;52.850;6.970;2022-08-27T02:12:46;21.60;71.60
60313;DHT22;46158;52.850;6.970;2022-08-27T02:15:14;21.60;71.60
60313;DHT22;46158;52.850;6.970;2022-08-27T02:17:40;21.60;71.60
60313;DHT22;46158;52.850;6.970;2022-08-27T02:20:07;21.60;71.60
60313;DHT22;46158;52.850;6.970;2022-08-27T02:22:34;21.60;71.60
60313;DHT22;46158;52.850;6.970;2022-08-27T02:25:00;21.60;71.60
60313;DHT22;46158;52.850;6.970;2022-08-27T02:27:26;21.60;71.60
60313;DHT22;46158;52.850;6.970;2022-08-27T02:29:52;21.50;71.50
60313;DHT22;46158;52.850;6.970;2022-08-27T02:32:18;21.50;71.60
60313;DHT22;46158;52.850;6.970;2022-08-27T02:34:44;21.50;71.50
60313;DHT22;46158;52.850;6.970;2022-08-27T02:37:10;21.50;71.60
60313;DHT22;46158;52.850;6.970;2022-08-27T02:39:35;21.60;71.60
60313;DHT22;46158;52.850;6.970;2022-08-27T02:42:01;21.50;71.60
60313;DHT22;46158;52.850;6.970;2022-08-27T02:44:27;21.50;71.50
60313;DHT22;46158;52.850;6.970;2022-08-27T02:46:53;21.50;71.60
60313;DHT22;46158;52.850;6.970;2022-08-27T02:49:19;21.50;71.60
60313;DHT22;46158;52.850;6.970;2022-08-27T02:51:44;21.50;71.60
60313;DHT22;46158;52.850;6.970;2022-08-27T02:54:10;21.50;71.60
60313;DHT22;46158;52.850;6.970;2022-08-27T02:56:36;21.50;71.70
60313;DHT22;46158;52.850;6.970;2022-08-27T02:59:02;21.50;71.60
60313;DHT22;46158;52.850;6.970;2022-08-27T03:01:28;21.50;71.70
60313;DHT22;46158;52.850;6.970;2022-08-27T03:03:54;21.50;71.60
60313;DHT22;46158;52.850;6.970;2022-08-27T03:06:20;21.50;72.30
60313;DHT22;46158;52.850;6.970;2022-08-27T03:08:46;21.50;71.60
60313;DHT22;46158;52.850;6.970;2022-08-27T03:11:12;21.50;71.60
60313;DHT22;46158;52.850;6.970;2022-08-27T03:13:38;21.50;71.60
60313;DHT22;46158;52.850;6.970;2022-08-27T03:16:05;21.50;71.60
60313;DHT22;46158;52.850;6.970;2022-08-27T03:18:32;21.40;71.60
60313;DHT22;46158;52.850;6.970;2022-08-27T03:20:58;21.50;71.60
60313;DHT22;46158;52.850;6.970;2022-08-27T03:23:26;21.50;71.60
60313;DHT22;46158;52.850;6.970;2022-08-27T03:25:58;21.40;71.60
60313;DHT22;46158;52.850;6.970;2022-08-27T03:28:26;21.50;71.70
60313;DHT22;46158;52.850;6.970;2022-08-27T03:30:59;21.40;71.70
60313;DHT22;46158;52.850;6.970;2022-08-27T03:33:30;21.50;71.70
60313;DHT22;46158;52.850;6.970;2022-08-27T03:35:55;21.40;71.70
60313;DHT22;46158;52.850;6.970;2022-08-27T03:38:21;21.40;71.60
60313;DHT22;46158;52.850;6.970;2022-08-27T03:40:48;21.40;71.60
60313;DHT22;46158;52.850;6.970;2022-08-27T03:43:15;21.40;71.60
60313;DHT22;46158;52.850;6.970;2022-08-27T03:45:42;21.40;71.60
60313;DHT22;46158;52.850;6.970;2022-08-27T03:48:09;21.40;71.60
60313;DHT22;46158;52.850;6.970;2022-08-27T03:50:37;21.40;71.60
60313;DHT22;46158;52.850;6.970;2022-08-27T03:53:03;21.40;71.60
60313;DHT22;46158;52.850;6.970;2022-08-27T03:55:29;21.40;71.60
60313;DHT22;46158;52.850;6.970;2022-08-27T03:57:55;21.40;71.50
60313;DHT22;46158;52.850;6.970;2022-08-27T04:00:21;21.30;71.50
60313;DHT22;46158;52.850;6.970;2022-08-27T04:02:49;21.30;71.50
60313;DHT22;46158;52.850;6.970;2022-08-27T04:05:15;21.30;71.50
60313;DHT22;46158;52.850;6.970;2022-08-27T04:07:41;21.30;71.50
60313;DHT22;46158;52.850;6.970;2022-08-27T04:10:09;21.30;71.50
60313;DHT22;46158;52.850;6.970;2022-08-27T04:12:35;21.30;71.40
60313;DHT22;46158;52.850;6.970;2022-08-27T04:15:01;21.30;71.40
60313;DHT22;46158;52.850;6.970;2022-08-27T04:17:27;21.30;71.40
60313;DHT22;46158;52.850;6.970;2022-08-27T04:19:53;21.30;71.50
60313;DHT22;46158;52.850;6.970;2022-08-27T04:22:19;21.30;71.50
60313;DHT22;46158;52.850;6.970;2022-08-27T04:24:45;21.30;71.50
60313;DHT22;46158;52.850;6.970;2022-08-27T04:27:11;21.30;71.50
60313;DHT22;46158;52.850;6.970;2022-08-27T04:29:39;21.30;71.50
60313;DHT22;46158;52.850;6.970;2022-08-27T04:32:05;21.20;71.40
60313;DHT22;46158;52.850;6.970;2022-08-27T04:34:31;21.30;71.50
60313;DHT22;46158;52.850;6.970;2022-08-27T04:36:58;21.20;71.40
60313;DHT22;46158;52.850;6.970;2022-08-27T04:39:26;21.20;71.50
60313;DHT22;46158;52.850;6.970;2022-08-27T04:41:53;21.20;71.50
60313;DHT22;46158;52.850;6.970;2022-08-27T04:44:21;21.20;71.50
60313;DHT22;46158;52.850;6.970;2022-08-27T04:46:47;21.20;71.50
60313;DHT22;46158;52.850;6.970;2022-08-27T04:49:14;21.20;71.50
60313;DHT22;46158;52.850;6.970;2022-08-27T04:51:40;21.20;71.50
60313;DHT22;46158;52.850;6.970;2022-08-27T04:54:08;21.20;71.60
60313;DHT22;46158;52.850;6.970;2022-08-27T04:56:35;21.20;71.60
60313;DHT22;46158;52.850;6.970;2022-08-27T04:59:02;21.20;71.60
60313;DHT22;46158;52.850;6.970;2022-08-27T05:01:29;21.20;71.60
60313;DHT22;46158;52.850;6.970;2022-08-27T05:03:56;21.20;71.60
60313;DHT22;46158;52.850;6.970;2022-08-27T05:06:23;21.20;71.70
60313;DHT22;46158;52.850;6.970;2022-08-27T05:08:51;21.10;71.60
60313;DHT22;46158;52.850;6.970;2022-08-27T05:11:18;21.20;71.60
60313;DHT22;46158;52.850;6.970;2022-08-27T05:13:45;21.10;71.60
60313;DHT22;46158;52.850;6.970;2022-08-27T05:16:17;21.10;71.60
60313;DHT22;46158;52.850;6.970;2022-08-27T05:18:43;21.10;71.60
60313;DHT22;46158;52.850;6.970;2022-08-27T05:21:17;21.10;71.60
60313;DHT22;46158;52.850;6.970;2022-08-27T05:23:43;21.10;71.60
60313;DHT22;46158;52.850;6.970;2022-08-27T05:26:09;21.10;71.70
60313;DHT22;46158;52.850;6.970;2022-08-27T05:28:34;21.10;71.80
60313;DHT22;46158;52.850;6.970;2022-08-27T05:31:05;21.10;71.70
60313;DHT22;46158;52.850;6.970;2022-08-27T05:33:32;21.10;71.70
60313;DHT22;46158;52.850;6.970;2022-08-27T05:35:58;21.10;71.70
60313;DHT22;46158;52.850;6.970;2022-08-27T05:38:26;21.00;71.70
60313;DHT22;46158;52.850;6.970;2022-08-27T05:41:07;21.00;71.70
60313;DHT22;46158;52.850;6.970;2022-08-27T05:43:34;21.10;71.80
60313;DHT22;46158;52.850;6.970;2022-08-27T05:46:03;21.00;72.50
60313;DHT22;46158;52.850;6.970;2022-08-27T05:48:31;21.00;71.80
60313;DHT22;46158;52.850;6.970;2022-08-27T05:50:57;21.00;71.80
60313;DHT22;46158;52.850;6.970;2022-08-27T05:53:22;21.00;71.80
60313;DHT22;46158;52.850;6.970;2022-08-27T05:55:48;21.00;71.90
60313;DHT22;46158;52.850;6.970;2022-08-27T05:58:14;21.00;71.90
60313;DHT22;46158;52.850;6.970;2022-08-27T06:01:01;21.00;71.80
60313;DHT22;46158;52.850;6.970;2022-08-27T06:03:35;21.00;71.90
60313;DHT22;46158;52.850;6.970;2022-08-27T06:06:03;21.00;71.70
60313;DHT22;46158;52.850;6.970;2022-08-27T06:08:29;21.00;71.30
60313;DHT22;46158;52.850;6.970;2022-08-27T06:10:55;20.90;70.60
60313;DHT22;46158;52.850;6.970;2022-08-27T06:13:22;20.90;70.40
60313;DHT22;46158;52.850;6.970;2022-08-27T06:15:48;20.90;70.30
60313;DHT22;46158;52.850;6.970;2022-08-27T06:18:14;20.80;70.10
60313;DHT22;46158;52.850;6.970;2022-08-27T06:20:40;20.80;70.00
60313;DHT22;46158;52.850;6.970;2022-08-27T06:23:05;20.80;70.00
60313;DHT22;46158;52.850;6.970;2022-08-27T06:25:31;20.70;70.00
60313;DHT22;46158;52.850;6.970;2022-08-27T06:27:58;20.60;70.10
60313;DHT22;46158;52.850;6.970;2022-08-27T06:30:24;20.60;70.20
60313;DHT22;46158;52.850;6.970;2022-08-27T06:32:50;20.60;70.10
60313;DHT22;46158;52.850;6.970;2022-08-27T06:35:17;20.60;70.70
60313;DHT22;46158;52.850;6.970;2022-08-27T06:37:43;20.50;70.00
60313;DHT22;46158;52.850;6.970;2022-08-27T06:40:09;20.60;70.30
60313;DHT22;46158;52.850;6.970;2022-08-27T06:42:36;20.60;70.60
60313;DHT22;46158;52.850;6.970;2022-08-27T06:45:03;20.60;70.70
60313;DHT22;46158;52.850;6.970;2022-08-27T06:47:32;20.50;70.70
60313;DHT22;46158;52.850;6.970;2022-08-27T06:49:58;20.60;70.80
60313;DHT22;46158;52.850;6.970;2022-08-27T06:52:24;20.60;70.90
60313;DHT22;46158;52.850;6.970;2022-08-27T06:54:49;20.60;70.90
60313;DHT22;46158;52.850;6.970;2022-08-27T06:57:16;20.60;71.00
60313;DHT22;46158;52.850;6.970;2022-08-27T06:59:42;20.60;71.00
60313;DHT22;46158;52.850;6.970;2022-08-27T07:02:09;20.60;71.10
60313;DHT22;46158;52.850;6.970;2022-08-27T07:04:35;20.60;71.10
60313;DHT22;46158;52.850;6.970;2022-08-27T07:07:02;20.60;71.10
60313;DHT22;46158;52.850;6.970;2022-08-27T07:09:29;20.60;71.20
60313;DHT22;46158;52.850;6.970;2022-08-27T07:11:57;20.70;71.20
60313;DHT22;46158;52.850;6.970;2022-08-27T07:14:23;20.70;71.20
60313;DHT22;46158;52.850;6.970;2022-08-27T07:16:49;20.70;71.30
60313;DHT22;46158;52.850;6.970;2022-08-27T07:19:16;20.70;71.40
60313;DHT22;46158;52.850;6.970;2022-08-27T07:21:42;20.70;71.40
60313;DHT22;46158;52.850;6.970;2022-08-27T07:24:08;20.70;71.40
60313;DHT22;46158;52.850;6.970;2022-08-27T07:26:37;20.70;71.40
60313;DHT22;46158;52.850;6.970;2022-08-27T07:29:05;20.70;71.40
60313;DHT22;46158;52.850;6.970;2022-08-27T07:31:31;20.70;71.40
60313;DHT22;46158;52.850;6.970;2022-08-27T07:34:00;20.70;71.40
60313;DHT22;46158;52.850;6.970;2022-08-27T07:36:26;20.70;71.40
60313;DHT22;46158;52.850;6.970;2022-08-27T07:38:52;20.80;71.40
60313;DHT22;46158;52.850;6.970;2022-08-27T07:41:18;20.80;71.40
60313;DHT22;46158;52.850;6.970;2022-08-27T07:43:44;20.80;71.40
60313;DHT22;46158;52.850;6.970;2022-08-27T07:46:28;20.80;71.50
60313;DHT22;46158;52.850;6.970;2022-08-27T07:48:55;20.80;71.50
60313;DHT22;46158;52.850;6.970;2022-08-27T07:51:23;20.80;71.50
60313;DHT22;46158;52.850;6.970;2022-08-27T07:53:49;20.80;71.50
60313;DHT22;46158;52.850;6.970;2022-08-27T07:56:15;20.80;71.60
60313;DHT22;46158;52.850;6.970;2022-08-27T07:58:42;20.80;71.60
60313;DHT22;46158;52.850;6.970;2022-08-27T08:01:08;20.90;71.70
60313;DHT22;46158;52.850;6.970;2022-08-27T08:03:34;20.80;71.70
60313;DHT22;46158;52.850;6.970;2022-08-27T08:06:04;20.80;71.70
60313;DHT22;46158;52.850;6.970;2022-08-27T08:08:33;20.90;71.80
60313;DHT22;46158;52.850;6.970;2022-08-27T08:10:59;20.90;71.80
60313;DHT22;46158;52.850;6.970;2022-08-27T08:13:26;20.90;71.90
60313;DHT22;46158;52.850;6.970;2022-08-27T08:15:52;20.90;72.60
60313;DHT22;46158;52.850;6.970;2022-08-27T08:18:18;20.90;72.00
60313;DHT22;46158;52.850;6.970;2022-08-27T08:20:43;20.90;71.90
60313;DHT22;46158;52.850;6.970;2022-08-27T08:23:09;20.90;71.90
60313;DHT22;46158;52.850;6.970;2022-08-27T08:25:35;20.90;71.90
60313;DHT22;46158;52.850;6.970;2022-08-27T08:28:02;20.90;71.80
60313;DHT22;46158;52.850;6.970;2022-08-27T08:30:27;20.90;71.70
60313;DHT22;46158;52.850;6.970;2022-08-27T08:32:53;21.00;71.70
60313;DHT22;46158;52.850;6.970;2022-08-27T08:35:19;20.90;71.50
60313;DHT22;46158;52.850;6.970;2022-08-27T08:37:45;21.00;71.40
60313;DHT22;46158;52.850;6.970;2022-08-27T08:40:24;21.00;71.40
60313;DHT22;46158;52.850;6.970;2022-08-27T08:42:53;21.00;71.30
60313;DHT22;46158;52.850;6.970;2022-08-27T08:45:24;21.00;71.40
60313;DHT22;46158;52.850;6.970;2022-08-27T08:50:36;21.00;71.40
60313;DHT22;46158;52.850;6.970;2022-08-27T08:53:36;21.00;71.20
60313;DHT22;46158;52.850;6.970;2022-08-27T08:56:08;21.00;71.20
60313;DHT22;46158;52.850;6.970;2022-08-27T08:58:46;21.00;71.20
60313;DHT22;46158;52.850;6.970;2022-08-27T09:01:15;21.00;71.20
60313;DHT22;46158;52.850;6.970;2022-08-27T09:04:06;21.00;71.00
60313;DHT22;46158;52.850;6.970;2022-08-27T09:09:15;21.00;70.90
60313;DHT22;46158;52.850;6.970;2022-08-27T09:12:25;21.10;70.90
60313;DHT22;46158;52.850;6.970;2022-08-27T09:15:15;21.10;70.90
60313;DHT22;46158;52.850;6.970;2022-08-27T09:17:43;21.10;70.90
60313;DHT22;46158;52.850;6.970;2022-08-27T09:20:11;21.10;71.00
60313;DHT22;46158;52.850;6.970;2022-08-27T09:25:33;21.10;71.00
60313;DHT22;46158;52.850;6.970;2022-08-27T09:28:00;21.10;70.80
60313;DHT22;46158;52.850;6.970;2022-08-27T09:30:31;21.10;70.70
60313;DHT22;46158;52.850;6.970;2022-08-27T09:33:00;21.00;70.80
60313;DHT22;46158;52.850;6.970;2022-08-27T09:35:40;21.10;70.70
60313;DHT22;46158;52.850;6.970;2022-08-27T09:38:07;21.10;70.70
60313;DHT22;46158;52.850;6.970;2022-08-27T09:40:48;21.10;70.70
60313;DHT22;46158;52.850;6.970;2022-08-27T09:45:47;21.10;70.60
60313;DHT22;46158;52.850;6.970;2022-08-27T09:48:17;21.10;70.50
60313;DHT22;46158;52.850;6.970;2022-08-27T09:50:50;21.10;70.40
60313;DHT22;46158;52.850;6.970;2022-08-27T09:55:58;21.20;69.70
60313;DHT22;46158;52.850;6.970;2022-08-27T09:58:29;21.20;69.70
60313;DHT22;46158;52.850;6.970;2022-08-27T10:03:44;21.20;69.60
60313;DHT22;46158;52.850;6.970;2022-08-27T10:06:09;21.20;70.30
60313;DHT22;46158;52.850;6.970;2022-08-27T10:08:47;21.20;69.50
60313;DHT22;46158;52.850;6.970;2022-08-27T10:11:22;21.20;69.40
60313;DHT22;46158;52.850;6.970;2022-08-27T10:16:53;21.20;69.70
60313;DHT22;46158;52.850;6.970;2022-08-27T10:27:33;21.20;69.50
60313;DHT22;46158;52.850;6.970;2022-08-27T10:30:09;21.20;69.20
60313;DHT22;46158;52.850;6.970;2022-08-27T10:35:36;21.20;68.90
60313;DHT22;46158;52.850;6.970;2022-08-27T10:38:21;21.20;68.90
60313;DHT22;46158;52.850;6.970;2022-08-27T10:41:17;21.30;68.90
60313;DHT22;46158;52.850;6.970;2022-08-27T10:52:27;21.30;68.90
60313;DHT22;46158;52.850;6.970;2022-08-27T10:55:21;21.30;68.90
60313;DHT22;46158;52.850;6.970;2022-08-27T11:00:34;21.30;68.90
60313;DHT22;46158;52.850;6.970;2022-08-27T11:03:13;21.30;68.80
60313;DHT22;46158;52.850;6.970;2022-08-27T11:05:48;21.30;68.80
60313;DHT22;46158;52.850;6.970;2022-08-27T11:08:27;21.30;68.70
60313;DHT22;46158;52.850;6.970;2022-08-27T11:11:01;21.30;68.70
60313;DHT22;46158;52.850;6.970;2022-08-27T11:13:38;21.30;68.70
60313;DHT22;46158;52.850;6.970;2022-08-27T11:16:16;21.30;68.60
60313;DHT22;46158;52.850;6.970;2022-08-27T11:18:46;21.30;69.30
60313;DHT22;46158;52.850;6.970;2022-08-27T11:21:31;21.40;68.70
60313;DHT22;46158;52.850;6.970;2022-08-27T11:24:13;21.30;68.60
60313;DHT22;46158;52.850;6.970;2022-08-27T11:26:42;21.40;68.50
60313;DHT22;46158;52.850;6.970;2022-08-27T11:29:38;21.40;68.50
60313;DHT22;46158;52.850;6.970;2022-08-27T11:32:34;21.40;68.50
60313;DHT22;46158;52.850;6.970;2022-08-27T11:35:08;21.40;68.40
60313;DHT22;46158;52.850;6.970;2022-08-27T11:43:25;21.40;68.60
60313;DHT22;46158;52.850;6.970;2022-08-27T11:45:56;21.40;68.40
60313;DHT22;46158;52.850;6.970;2022-08-27T11:48:35;21.40;68.50
60313;DHT22;46158;52.850;6.970;2022-08-27T11:53:32;21.40;68.40
60313;DHT22;46158;52.850;6.970;2022-08-27T11:56:15;21.50;68.40
60313;DHT22;46158;52.850;6.970;2022-08-27T11:58:44;21.50;68.30
60313;DHT22;46158;52.850;6.970;2022-08-27T12:01:30;21.50;68.40
60313;DHT22;46158;52.850;6.970;2022-08-27T12:06:51;21.50;68.40
60313;DHT22;46158;52.850;6.970;2022-08-27T12:09:21;21.50;68.30
60313;DHT22;46158;52.850;6.970;2022-08-27T12:20:42;21.50;67.60
60313;DHT22;46158;52.850;6.970;2022-08-27T12:29:25;21.50;67.90
60313;DHT22;46158;52.850;6.970;2022-08-27T12:32:45;21.50;67.80
60313;DHT22;46158;52.850;6.970;2022-08-27T12:37:30;21.50;67.50
60313;DHT22;46158;52.850;6.970;2022-08-27T12:40:01;21.60;67.50
60313;DHT22;46158;52.850;6.970;2022-08-27T12:42:29;21.60;67.60
60313;DHT22;46158;52.850;6.970;2022-08-27T12:44:55;21.60;67.70
60313;DHT22;46158;52.850;6.970;2022-08-27T12:47:22;21.60;67.80
60313;DHT22;46158;52.850;6.970;2022-08-27T12:49:58;21.60;67.80
60313;DHT22;46158;52.850;6.970;2022-08-27T12:55:15;21.60;67.80
60313;DHT22;46158;52.850;6.970;2022-08-27T13:03:53;21.60;66.30
60313;DHT22;46158;52.850;6.970;2022-08-27T13:06:33;21.60;66.30
60313;DHT22;46158;52.850;6.970;2022-08-27T13:09:01;21.60;65.50
60313;DHT22;46158;52.850;6.970;2022-08-27T13:11:33;21.60;66.10
60313;DHT22;46158;52.850;6.970;2022-08-27T13:14:14;21.60;65.60
60313;DHT22;46158;52.850;6.970;2022-08-27T13:16:48;21.60;66.00
60313;DHT22;46158;52.850;6.970;2022-08-27T13:19:28;21.70;66.50
60313;DHT22;46158;52.850;6.970;2022-08-27T13:21:55;21.70;66.60
60313;DHT22;46158;52.850;6.970;2022-08-27T13:24:34;21.60;66.90
60313;DHT22;46158;52.850;6.970;2022-08-27T13:27:05;21.70;67.20
60313;DHT22;46158;52.850;6.970;2022-08-27T13:29:31;21.70;67.30
60313;DHT22;46158;52.850;6.970;2022-08-27T13:31:57;21.70;67.10
60313;DHT22;46158;52.850;6.970;2022-08-27T13:34:26;21.70;67.10
60313;DHT22;46158;52.850;6.970;2022-08-27T13:37:17;21.60;67.10
60313;DHT22;46158;52.850;6.970;2022-08-27T13:39:45;21.70;67.40
60313;DHT22;46158;52.850;6.970;2022-08-27T13:42:11;21.70;67.50
60313;DHT22;46158;52.850;6.970;2022-08-27T13:44:39;21.70;67.50
60313;DHT22;46158;52.850;6.970;2022-08-27T13:47:20;21.70;66.80
60313;DHT22;46158;52.850;6.970;2022-08-27T13:50:00;21.70;66.90
60313;DHT22;46158;52.850;6.970;2022-08-27T13:52:31;21.70;67.00
60313;DHT22;46158;52.850;6.970;2022-08-27T13:55:14;21.70;67.10
60313;DHT22;46158;52.850;6.970;2022-08-27T13:57:46;21.70;67.10
60313;DHT22;46158;52.850;6.970;2022-08-27T14:00:39;21.70;67.10
60313;DHT22;46158;52.850;6.970;2022-08-27T14:03:22;21.70;67.10
60313;DHT22;46158;52.850;6.970;2022-08-27T14:05:48;21.70;67.10
60313;DHT22;46158;52.850;6.970;2022-08-27T14:08:16;21.70;67.10
60313;DHT22;46158;52.850;6.970;2022-08-27T14:10:49;21.70;67.30
60313;DHT22;46158;52.850;6.970;2022-08-27T14:13:23;21.70;66.70
60313;DHT22;46158;52.850;6.970;2022-08-27T14:15:55;21.70;66.80
60313;DHT22;46158;52.850;6.970;2022-08-27T14:18:28;21.70;66.90
60313;DHT22;46158;52.850;6.970;2022-08-27T14:20:55;21.70;66.90
60313;DHT22;46158;52.850;6.970;2022-08-27T14:23:21;21.70;67.20
60313;DHT22;46158;52.850;6.970;2022-08-27T14:25:49;21.70;67.30
60313;DHT22;46158;52.850;6.970;2022-08-27T14:28:15;21.70;67.40
60313;DHT22;46158;52.850;6.970;2022-08-27T14:30:40;21.70;67.40
60313;DHT22;46158;52.850;6.970;2022-08-27T14:33:06;21.70;67.40
60313;DHT22;46158;52.850;6.970;2022-08-27T14:35:34;21.80;67.60
60313;DHT22;46158;52.850;6.970;2022-08-27T14:38:15;21.70;67.60
60313;DHT22;46158;52.850;6.970;2022-08-27T14:40:44;21.70;67.60
60313;DHT22;46158;52.850;6.970;2022-08-27T14:43:10;21.80;67.70
60313;DHT22;46158;52.850;6.970;2022-08-27T14:45:40;21.80;68.40
60313;DHT22;46158;52.850;6.970;2022-08-27T14:48:07;21.80;67.80
60313;DHT22;46158;52.850;6.970;2022-08-27T14:50:35;21.80;67.80
60313;DHT22;46158;52.850;6.970;2022-08-27T14:53:02;21.70;67.30
60313;DHT22;46158;52.850;6.970;2022-08-27T14:55:28;21.80;67.00
60313;DHT22;46158;52.850;6.970;2022-08-27T14:57:56;21.80;67.20
60313;DHT22;46158;52.850;6.970;2022-08-27T15:00:22;21.80;67.30
60313;DHT22;46158;52.850;6.970;2022-08-27T15:02:48;21.80;67.20
60313;DHT22;46158;52.850;6.970;2022-08-27T15:05:16;21.80;67.10
60313;DHT22;46158;52.850;6.970;2022-08-27T15:07:42;21.80;67.20
60313;DHT22;46158;52.850;6.970;2022-08-27T15:10:08;21.80;67.20
60313;DHT22;46158;52.850;6.970;2022-08-27T15:12:34;21.80;67.30
60313;DHT22;46158;52.850;6.970;2022-08-27T15:15:00;21.80;67.50
60313;DHT22;46158;52.850;6.970;2022-08-27T15:17:26;21.80;67.40
60313;DHT22;46158;52.850;6.970;2022-08-27T15:19:51;21.80;67.50
60313;DHT22;46158;52.850;6.970;2022-08-27T15:22:20;21.80;67.40
60313;DHT22;46158;52.850;6.970;2022-08-27T15:24:51;21.80;67.50
60313;DHT22;46158;52.850;6.970;2022-08-27T15:27:18;21.80;67.50
60313;DHT22;46158;52.850;6.970;2022-08-27T15:29:44;21.80;67.70
60313;DHT22;46158;52.850;6.970;2022-08-27T15:32:21;21.80;67.50
60313;DHT22;46158;52.850;6.970;2022-08-27T15:34:47;21.80;67.50
60313;DHT22;46158;52.850;6.970;2022-08-27T15:37:13;21.80;67.60
60313;DHT22;46158;52.850;6.970;2022-08-27T15:39:39;21.80;67.60
60313;DHT22;46158;52.850;6.970;2022-08-27T15:42:05;21.80;67.40
60313;DHT22;46158;52.850;6.970;2022-08-27T15:44:32;21.80;67.50
60313;DHT22;46158;52.850;6.970;2022-08-27T15:46:58;21.80;67.40
60313;DHT22;46158;52.850;6.970;2022-08-27T15:49:24;21.80;67.50
60313;DHT22;46158;52.850;6.970;2022-08-27T15:51:49;21.80;67.50
60313;DHT22;46158;52.850;6.970;2022-08-27T15:54:16;21.80;67.50
60313;DHT22;46158;52.850;6.970;2022-08-27T15:56:41;21.80;67.40
60313;DHT22;46158;52.850;6.970;2022-08-27T15:59:07;21.80;67.50
60313;DHT22;46158;52.850;6.970;2022-08-27T16:01:35;21.80;67.30
60313;DHT22;46158;52.850;6.970;2022-08-27T16:04:02;21.80;66.60
60313;DHT22;46158;52.850;6.970;2022-08-27T16:06:29;21.80;66.20
60313;DHT22;46158;52.850;6.970;2022-08-27T16:08:55;21.80;66.10
60313;DHT22;46158;52.850;6.970;2022-08-27T16:11:22;21.80;65.90
60313;DHT22;46158;52.850;6.970;2022-08-27T16:13:48;21.80;66.40
60313;DHT22;46158;52.850;6.970;2022-08-27T16:16:14;21.90;65.70
60313;DHT22;46158;52.850;6.970;2022-08-27T16:18:41;21.90;65.40
60313;DHT22;46158;52.850;6.970;2022-08-27T16:21:07;21.90;65.50
60313;DHT22;46158;52.850;6.970;2022-08-27T16:23:34;21.80;65.00
60313;DHT22;46158;52.850;6.970;2022-08-27T16:26:01;21.90;65.20
60313;DHT22;46158;52.850;6.970;2022-08-27T16:28:27;21.90;65.60
60313;DHT22;46158;52.850;6.970;2022-08-27T16:30:53;21.80;65.90
60313;DHT22;46158;52.850;6.970;2022-08-27T16:33:20;21.90;66.00
60313;DHT22;46158;52.850;6.970;2022-08-27T16:35:47;21.90;65.70
60313;DHT22;46158;52.850;6.970;2022-08-27T16:38:13;21.80;65.80
60313;DHT22;46158;52.850;6.970;2022-08-27T16:40:43;21.80;65.70
60313;DHT22;46158;52.850;6.970;2022-08-27T16:43:16;21.80;66.40
60313;DHT22;46158;52.850;6.970;2022-08-27T16:45:46;21.80;65.80
60313;DHT22;46158;52.850;6.970;2022-08-27T16:48:12;21.80;65.80
60313;DHT22;46158;52.850;6.970;2022-08-27T16:50:57;21.80;65.80
60313;DHT22;46158;52.850;6.970;2022-08-27T16:53:23;21.80;65.80
60313;DHT22;46158;52.850;6.970;2022-08-27T16:55:49;21.80;65.90
60313;DHT22;46158;52.850;6.970;2022-08-27T16:58:19;21.80;65.90
60313;DHT22;46158;52.850;6.970;2022-08-27T17:00:49;21.80;65.90
60313;DHT22;46158;52.850;6.970;2022-08-27T17:03:17;21.80;65.90